Time;durP1;ratioP1;P1;durP2;ratioP2;P2;SDS_P1;SDS_P2;PMS_P1;PMS_P2;Temp;Humidity;BMP_temperature;BMP_pressure;BME280_temperature;BME280_humidity;BME280_pressure;Samples;Min_cycle;Max_cycle;Signal;HPM_P1;HPM_P2
2022/11/13 00:01:52;;;;;;;7.50;5.17;;;9.30;99.90;;;;;;5055230;28;20286;-62
2022/11/13 00:04:20;;;;;;;7.37;5.03;;;9.30;99.90;;;;;;5055418;28;20212;-62
2022/11/13 00:06:46;;;;;;;9.60;5.70;;;9.20;99.90;;;;;;5054943;28;20208;-62
2022/11/13 00:09:13;;;;;;;8.33;5.10;;;9.20;99.90;;;;;;5054957;28;20728;-62
2022/11/13 00:11:40;;;;;;;7.13;4.70;;;9.20;99.90;;;;;;5055181;28;20282;-62
2022/11/13 00:14:06;;;;;;;5.87;4.40;;;9.20;99.90;;;;;;5054789;28;20222;-62
2022/11/13 00:16:33;;;;;;;6.60;4.00;;;9.20;99.90;;;;;;5054890;28;20209;-62
2022/11/13 00:19:00;;;;;;;6.20;4.00;;;9.20;99.90;;;;;;5054973;28;20698;-62
2022/11/13 00:21:28;;;;;;;7.03;3.97;;;9.20;99.90;;;;;;5054985;28;20209;-62
2022/11/13 00:23:56;;;;;;;5.33;3.87;;;9.20;99.90;;;;;;5054994;28;20221;-62
2022/11/13 00:26:25;;;;;;;5.27;3.53;;;9.20;95.10;;;;;;5054976;28;20668;-62
2022/11/13 00:28:53;;;;;;;5.33;3.50;;;9.20;4.00;;;;;;5054736;28;20218;-62
2022/11/13 00:31:20;;;;;;;4.57;3.50;;;9.20;1.00;;;;;;5055389;28;20229;-62
2022/11/13 00:33:47;;;;;;;4.07;3.17;;;9.30;1.00;;;;;;5055021;28;20275;-62
2022/11/13 00:36:15;;;;;;;5.17;3.30;;;9.40;1.00;;;;;;5054788;28;20263;-62
2022/11/13 00:38:44;;;;;;;5.80;4.03;;;9.40;1.00;;;;;;5054912;28;20198;-62
2022/11/13 00:41:10;;;;;;;4.90;3.27;;;9.40;1.00;;;;;;5054468;28;20680;-62
2022/11/13 00:43:37;;;;;;;4.60;3.17;;;9.50;1.00;;;;;;5054490;28;20275;-62
2022/11/13 00:46:04;;;;;;;6.70;2.90;;;9.50;99.90;;;;;;5054412;28;20202;-62
2022/11/13 00:48:31;;;;;;;4.77;3.17;;;9.50;99.90;;;;;;5054689;28;20618;-62
2022/11/13 00:50:58;;;;;;;3.23;2.67;;;9.50;99.90;;;;;;5054484;28;20737;-62
2022/11/13 00:53:24;;;;;;;3.70;2.60;;;9.60;99.90;;;;;;5054382;28;20224;-61
2022/11/13 00:55:52;;;;;;;3.80;2.80;;;9.60;99.90;;;;;;5054494;28;20259;-62
2022/11/13 00:58:19;;;;;;;4.17;2.87;;;9.70;99.90;;;;;;5054374;28;20209;-62
2022/11/13 01:00:47;;;;;;;3.93;2.97;;;9.70;99.90;;;;;;5054422;28;20209;-62
2022/11/13 01:03:15;;;;;;;4.50;2.77;;;9.70;99.90;;;;;;5053689;28;20241;-62
2022/11/13 01:05:44;;;;;;;4.50;2.87;;;9.70;99.90;;;;;;5054086;28;20209;-61
2022/11/13 01:08:12;;;;;;;3.10;2.30;;;9.70;99.90;;;;;;5053921;28;20298;-63
2022/11/13 01:10:42;;;;;;;4.17;2.63;;;9.70;99.90;;;;;;5053934;28;20225;-62
2022/11/13 01:13:10;;;;;;;4.77;2.30;;;9.70;99.90;;;;;;5054159;28;20236;-62
2022/11/13 01:15:39;;;;;;;4.20;2.97;;;9.70;99.90;;;;;;5053967;28;20271;-62
2022/11/13 01:18:05;;;;;;;4.60;2.97;;;9.70;99.90;;;;;;5053880;28;20631;-62
2022/11/13 01:20:32;;;;;;;2.60;2.30;;;9.70;99.90;;;;;;5053776;28;20202;-62
2022/11/13 01:22:59;;;;;;;3.30;2.53;;;9.70;99.90;;;;;;5053859;28;20316;-61
2022/11/13 01:25:27;;;;;;;4.13;2.40;;;9.70;99.90;;;;;;5053653;28;20255;-62
2022/11/13 01:27:54;;;;;;;2.60;2.33;;;9.70;99.90;;;;;;5053616;28;20206;-62
2022/11/13 01:30:22;;;;;;;5.27;2.80;;;9.70;99.90;;;;;;5053689;28;20222;-62
2022/11/13 01:32:49;;;;;;;7.03;2.57;;;9.80;99.90;;;;;;5053612;28;20229;-62
2022/11/13 01:35:16;;;;;;;3.67;2.70;;;9.80;99.90;;;;;;5053574;28;20209;-62
2022/11/13 01:37:42;;;;;;;4.70;2.87;;;9.80;99.90;;;;;;5053324;28;20209;-62
2022/11/13 01:40:11;;;;;;;3.47;2.43;;;9.90;99.90;;;;;;5053699;28;20213;-62
2022/11/13 01:42:38;;;;;;;3.60;2.50;;;9.90;99.90;;;;;;5053468;28;20233;-62
2022/11/13 01:45:38;;;;;;;3.80;2.63;;;9.90;99.90;;;;;;5053548;28;20209;-62
2022/11/13 01:48:09;;;;;;;2.87;2.30;;;10.00;99.90;;;;;;5052995;28;20672;-62
2022/11/13 01:50:36;;;;;;;2.97;2.37;;;10.00;99.90;;;;;;5053385;28;20704;-62
2022/11/13 01:53:03;;;;;;;2.70;1.97;;;10.10;99.90;;;;;;5053357;28;20279;-62
2022/11/13 01:55:30;;;;;;;2.97;2.30;;;10.20;99.90;;;;;;5053241;28;20215;-62
2022/11/13 01:57:57;;;;;;;3.80;2.03;;;10.30;99.90;;;;;;5053111;28;20206;-62
2022/11/13 02:00:24;;;;;;;3.17;1.90;;;10.40;99.90;;;;;;5053115;28;20227;-62
2022/11/13 02:02:51;;;;;;;4.20;2.40;;;10.40;99.90;;;;;;5052934;28;20283;-62
2022/11/13 02:05:19;;;;;;;2.67;2.20;;;10.50;99.90;;;;;;5053120;28;20240;-62
2022/11/13 02:07:46;;;;;;;2.63;2.20;;;10.50;99.90;;;;;;5053077;28;20570;-62
2022/11/13 02:10:13;;;;;;;4.67;2.30;;;10.50;99.90;;;;;;5052878;28;20225;-62
2022/11/13 02:12:43;;;;;;;3.10;2.67;;;10.50;99.90;;;;;;5052459;28;20221;-62
2022/11/13 02:15:10;;;;;;;4.47;2.43;;;10.50;99.90;;;;;;5052104;28;20220;-62
2022/11/13 02:17:42;;;;;;;4.17;2.50;;;10.50;99.90;;;;;;5052687;28;20680;-62
2022/11/13 02:20:09;;;;;;;4.27;2.50;;;10.50;99.90;;;;;;5052864;28;20623;-63
2022/11/13 02:22:47;;;;;;;3.30;2.60;;;10.60;99.90;;;;;;5052815;28;20230;-61
2022/11/13 02:25:16;;;;;;;3.80;2.80;;;10.60;99.90;;;;;;5052442;28;20256;-62
2022/11/13 02:27:45;;;;;;;3.63;2.57;;;10.60;99.90;;;;;;5052356;28;20575;-62
2022/11/13 02:30:16;;;;;;;4.17;2.33;;;10.50;99.90;;;;;;5052723;28;20232;-62
2022/11/13 02:32:44;;;;;;;4.40;2.37;;;10.50;99.90;;;;;;5052637;28;20230;-62
2022/11/13 02:35:11;;;;;;;2.77;2.40;;;10.50;99.90;;;;;;5052413;28;20687;-62
2022/11/13 02:37:37;;;;;;;3.20;2.40;;;10.40;99.90;;;;;;5052408;28;20283;-63
2022/11/13 02:40:06;;;;;;;3.73;2.80;;;10.40;99.90;;;;;;5052392;28;20228;-62
2022/11/13 02:42:34;;;;;;;4.13;2.50;;;10.40;99.90;;;;;;5052235;28;20601;-63
2022/11/13 02:45:01;;;;;;;3.77;2.60;;;10.40;99.90;;;;;;5052089;28;20695;-62
2022/11/13 02:47:27;;;;;;;3.07;2.53;;;10.30;99.90;;;;;;5052228;28;20288;-62
2022/11/13 02:49:54;;;;;;;2.97;2.20;;;10.30;99.90;;;;;;5052226;28;20225;-62
2022/11/13 02:52:21;;;;;;;2.90;2.30;;;10.30;99.90;;;;;;5052172;28;20230;-62
2022/11/13 02:54:47;;;;;;;4.77;2.17;;;10.30;99.90;;;;;;5052078;28;20205;-62
2022/11/13 02:57:14;;;;;;;4.20;2.30;;;10.20;99.90;;;;;;5052072;28;20218;-62
2022/11/13 02:59:42;;;;;;;3.53;2.57;;;10.20;99.90;;;;;;5052075;28;20623;-62
2022/11/13 03:02:09;;;;;;;3.13;2.40;;;10.20;99.90;;;;;;5052121;28;20299;-62
2022/11/13 03:04:36;;;;;;;2.50;2.10;;;10.20;99.90;;;;;;5052051;28;20680;-62
2022/11/13 03:07:02;;;;;;;2.93;2.40;;;10.20;99.90;;;;;;5051741;28;20210;-62
2022/11/13 03:09:29;;;;;;;2.57;2.20;;;10.20;99.90;;;;;;5051721;28;20287;-62
2022/11/13 03:11:56;;;;;;;2.93;2.20;;;10.20;99.90;;;;;;5051972;28;20213;-62
2022/11/13 03:14:22;;;;;;;4.07;2.63;;;10.20;99.90;;;;;;5051942;28;20202;-62
2022/11/13 03:16:50;;;;;;;2.93;2.10;;;10.20;99.90;;;;;;5051771;28;20202;-62
2022/11/13 03:19:17;;;;;;;4.53;2.30;;;10.20;99.90;;;;;;5052135;28;20259;-62
2022/11/13 03:21:44;;;;;;;2.40;2.03;;;10.20;99.90;;;;;;5053337;28;20691;-61
2022/11/13 03:24:10;;;;;;;2.97;2.03;;;10.20;99.90;;;;;;5051706;28;20866;-62
2022/11/13 03:26:37;;;;;;;4.23;2.40;;;10.20;99.90;;;;;;5051393;28;20614;-62
2022/11/13 03:29:03;;;;;;;7.13;2.37;;;10.20;99.90;;;;;;5051920;28;20209;-62
2022/11/13 03:31:30;;;;;;;5.57;2.50;;;10.20;99.90;;;;;;5051581;28;20236;-62
2022/11/13 03:33:58;;;;;;;2.87;2.30;;;10.20;99.90;;;;;;5051631;28;20229;-62
2022/11/13 03:36:25;;;;;;;3.27;2.13;;;10.20;99.90;;;;;;5051309;28;20233;-62
2022/11/13 03:38:53;;;;;;;2.90;2.03;;;10.20;99.90;;;;;;5051569;28;20690;-62
2022/11/13 03:41:21;;;;;;;4.07;2.47;;;10.20;99.90;;;;;;5051613;28;20300;-62
2022/11/13 03:43:47;;;;;;;3.47;2.47;;;10.20;99.90;;;;;;5051653;28;20633;-62
2022/11/13 03:46:14;;;;;;;2.60;2.00;;;10.00;99.90;;;;;;5051236;28;20232;-62
2022/11/13 03:48:41;;;;;;;3.83;2.53;;;10.00;99.90;;;;;;5051635;28;20213;-60
2022/11/13 03:51:08;;;;;;;2.87;2.30;;;9.90;99.90;;;;;;5051250;28;20232;-62
2022/11/13 03:53:35;;;;;;;2.93;2.53;;;9.90;99.90;;;;;;5051616;28;20280;-62
2022/11/13 03:56:02;;;;;;;3.93;2.80;;;9.80;99.90;;;;;;5051323;28;20205;-62
2022/11/13 03:58:29;;;;;;;3.20;2.27;;;9.70;99.90;;;;;;5051466;28;20216;-61
2022/11/13 04:00:56;;;;;;;3.80;2.43;;;9.70;99.90;;;;;;5051519;28;20205;-62
2022/11/13 04:03:23;;;;;;;3.40;2.30;;;9.60;99.90;;;;;;5051451;28;20404;-62
2022/11/13 04:05:50;;;;;;;4.50;3.03;;;9.50;99.90;;;;;;5051476;28;20266;-62
2022/11/13 04:08:19;;;;;;;3.63;2.60;;;9.40;99.90;;;;;;5051392;28;20209;-61
2022/11/13 04:10:46;;;;;;;2.43;2.20;;;9.40;99.90;;;;;;5051138;28;20232;-62
2022/11/13 04:13:13;;;;;;;3.17;2.47;;;9.40;99.90;;;;;;5051323;28;20642;-62
2022/11/13 04:15:40;;;;;;;3.43;2.00;;;9.40;99.90;;;;;;5051122;28;20208;-61
2022/11/13 04:18:06;;;;;;;2.80;2.30;;;9.40;99.90;;;;;;5051097;28;20750;-62
2022/11/13 04:20:33;;;;;;;3.70;2.37;;;9.50;99.90;;;;;;5051334;28;20205;-61
2022/11/13 04:23:00;;;;;;;2.43;2.20;;;9.50;99.90;;;;;;5051248;28;20282;-61
2022/11/13 04:25:28;;;;;;;2.70;1.97;;;9.60;99.90;;;;;;5051432;28;20217;-62
2022/11/13 04:27:54;;;;;;;2.43;2.00;;;9.70;99.90;;;;;;5051023;28;20212;-62
2022/11/13 04:30:21;;;;;;;3.93;2.30;;;9.70;99.90;;;;;;5051147;28;20221;-62
2022/11/13 04:32:48;;;;;;;3.10;1.97;;;9.80;99.90;;;;;;5050897;28;20256;-61
2022/11/13 04:35:14;;;;;;;3.73;2.13;;;9.80;99.90;;;;;;5051027;28;20738;-62
2022/11/13 04:37:41;;;;;;;2.47;2.00;;;9.80;99.90;;;;;;5053049;28;20217;-62
2022/11/13 04:40:09;;;;;;;2.97;2.20;;;9.80;99.90;;;;;;5054811;28;20259;-61
2022/11/13 04:42:48;;;;;;;5.23;2.07;;;9.90;99.90;;;;;;5054397;28;20237;-62
2022/11/13 04:45:17;;;;;;;2.53;2.17;;;9.90;99.90;;;;;;5054237;28;20575;-62
2022/11/13 04:47:44;;;;;;;3.07;1.93;;;9.90;99.90;;;;;;5054462;28;20263;-62
2022/11/13 04:50:11;;;;;;;2.70;1.97;;;10.00;99.90;;;;;;5054386;28;20715;-62
2022/11/13 04:52:38;;;;;;;2.13;1.63;;;10.00;99.90;;;;;;5054442;28;20625;-62
2022/11/13 04:55:05;;;;;;;2.33;1.80;;;10.00;99.90;;;;;;5054378;28;20231;-62
2022/11/13 04:57:32;;;;;;;3.73;1.60;;;10.10;99.90;;;;;;5054037;28;20205;-61
2022/11/13 05:00:00;;;;;;;2.10;1.80;;;10.10;99.90;;;;;;5054085;28;20201;-62
2022/11/13 05:02:27;;;;;;;2.17;1.83;;;10.20;99.90;;;;;;5054338;28;20252;-62
2022/11/13 05:04:54;;;;;;;2.33;1.73;;;10.20;99.90;;;;;;5054318;28;20263;-62
2022/11/13 05:07:21;;;;;;;2.33;1.70;;;10.20;99.90;;;;;;5053828;28;20405;-62
2022/11/13 05:09:47;;;;;;;2.43;1.60;;;10.20;99.90;;;;;;5054005;28;20201;-62
2022/11/13 05:12:14;;;;;;;2.10;1.53;;;10.20;99.90;;;;;;5053903;28;20229;-62
2022/11/13 05:14:41;;;;;;;2.00;1.60;;;10.20;99.90;;;;;;5054183;28;20205;-62
2022/11/13 05:17:11;;;;;;;2.30;1.77;;;10.20;99.90;;;;;;5053864;28;20270;-62
2022/11/13 05:19:38;;;;;;;2.23;1.77;;;10.10;99.90;;;;;;5054055;28;20640;-62
2022/11/13 05:22:05;;;;;;;2.00;1.80;;;10.10;99.90;;;;;;5053752;28;20254;-62
2022/11/13 05:24:32;;;;;;;1.73;1.57;;;10.00;99.90;;;;;;5053947;28;20229;-62
2022/11/13 05:26:59;;;;;;;2.10;1.40;;;10.00;99.90;;;;;;5053565;28;20704;-62
2022/11/13 05:29:26;;;;;;;3.73;1.70;;;10.00;99.90;;;;;;5053859;28;20735;-62
2022/11/13 05:31:52;;;;;;;2.37;1.90;;;9.90;99.90;;;;;;5053832;28;20674;-62
2022/11/13 05:34:20;;;;;;;2.20;1.87;;;9.90;99.90;;;;;;5053873;28;20640;-62
2022/11/13 05:36:47;;;;;;;3.83;1.73;;;9.90;99.90;;;;;;5053112;28;20723;-61
2022/11/13 05:39:14;;;;;;;3.50;1.80;;;9.80;99.90;;;;;;5053579;28;20559;-62
2022/11/13 05:41:40;;;;;;;2.23;1.77;;;9.80;99.90;;;;;;5053390;28;20212;-62
2022/11/13 05:44:07;;;;;;;2.43;1.80;;;9.90;99.90;;;;;;5053629;28;20225;-61
2022/11/13 05:46:34;;;;;;;1.60;1.20;;;10.00;99.90;;;;;;5053322;28;20619;-62
2022/11/13 05:49:02;;;;;;;1.70;1.30;;;10.10;99.90;;;;;;5053468;28;20405;-62
2022/11/13 05:51:32;;;;;;;1.60;1.50;;;10.30;99.90;;;;;;5053268;28;20682;-62
2022/11/13 05:54:01;;;;;;;1.90;1.20;;;10.40;99.90;;;;;;5053020;28;20232;-62
2022/11/13 05:56:29;;;;;;;2.00;1.20;;;10.50;99.90;;;;;;5053142;28;20209;-60
2022/11/13 05:58:57;;;;;;;1.57;1.13;;;10.70;99.90;;;;;;5053343;28;20206;-62
2022/11/13 06:01:27;;;;;;;1.97;1.40;;;10.80;99.90;;;;;;5053158;28;20644;-62
2022/11/13 06:03:55;;;;;;;3.00;1.03;;;10.80;99.90;;;;;;5053108;28;20287;-62
2022/11/13 06:06:23;;;;;;;1.53;1.10;;;10.80;99.90;;;;;;5052821;28;20628;-62
2022/11/13 06:08:52;;;;;;;1.90;1.30;;;10.70;99.90;;;;;;5053032;28;20236;-61
2022/11/13 06:11:20;;;;;;;1.93;1.00;;;10.60;99.90;;;;;;5053064;28;20279;-62
2022/11/13 06:13:48;;;;;;;4.60;1.40;;;10.50;99.90;;;;;;5052965;28;20637;-63
2022/11/13 06:16:17;;;;;;;1.40;1.10;;;10.40;99.90;;;;;;5052644;28;20205;-62
2022/11/13 06:18:45;;;;;;;2.67;1.30;;;10.30;99.90;;;;;;5052654;28;20214;-61
2022/11/13 06:21:14;;;;;;;1.30;1.20;;;10.30;99.90;;;;;;5052867;28;20315;-62
2022/11/13 06:23:41;;;;;;;1.40;1.13;;;10.30;99.90;;;;;;5052332;28;20711;-62
2022/11/13 06:26:12;;;;;;;1.43;1.07;;;10.30;99.90;;;;;;5052631;28;20652;-61
2022/11/13 06:28:39;;;;;;;1.17;0.90;;;10.30;99.90;;;;;;5052739;28;20591;-62
2022/11/13 06:31:08;;;;;;;1.53;1.33;;;10.30;99.90;;;;;;5052600;28;20226;-62
2022/11/13 06:33:35;;;;;;;2.97;1.40;;;10.20;99.90;;;;;;5052133;28;20222;-62
2022/11/13 06:36:02;;;;;;;1.40;1.20;;;10.30;99.90;;;;;;5052404;28;20267;-63
2022/11/13 06:38:31;;;;;;;1.30;1.13;;;10.30;99.90;;;;;;5052621;28;20209;-62
2022/11/13 06:40:58;;;;;;;1.37;1.10;;;10.30;99.90;;;;;;5052678;28;20305;-62
2022/11/13 06:43:26;;;;;;;1.40;1.07;;;10.30;99.90;;;;;;5052474;28;20229;-62
2022/11/13 06:45:53;;;;;;;1.10;1.00;;;10.30;99.90;;;;;;5052418;28;20263;-62
2022/11/13 06:48:20;;;;;;;1.57;1.37;;;10.30;99.90;;;;;;5052851;28;20213;-62
2022/11/13 06:50:47;;;;;;;1.43;1.13;;;10.30;99.90;;;;;;5052392;28;20221;-61
2022/11/13 06:53:14;;;;;;;1.30;1.20;;;10.30;99.90;;;;;;5052512;28;20249;-62
2022/11/13 06:55:43;;;;;;;1.20;1.10;;;10.30;99.90;;;;;;5052450;28;20202;-62
2022/11/13 06:58:10;;;;;;;1.43;1.30;;;10.30;99.90;;;;;;5052106;28;20292;-62
2022/11/13 07:00:38;;;;;;;1.57;1.03;;;10.20;99.90;;;;;;5051587;28;20852;-62
2022/11/13 07:03:05;;;;;;;3.10;2.33;;;10.30;99.90;;;;;;5052127;28;20649;-62
2022/11/13 07:05:31;;;;;;;4.17;2.13;;;10.40;99.90;;;;;;5052033;28;20212;-62
2022/11/13 07:07:58;;;;;;;3.70;2.17;;;10.40;99.90;;;;;;5051664;28;20668;-62
2022/11/13 07:10:24;;;;;;;1.47;1.33;;;10.30;99.90;;;;;;5051923;28;20210;-62
2022/11/13 07:12:51;;;;;;;3.83;1.50;;;10.20;99.90;;;;;;5051808;28;20255;-61
2022/11/13 07:15:18;;;;;;;4.00;2.63;;;10.20;99.90;;;;;;5051797;28;20235;-62
2022/11/13 07:17:46;;;;;;;2.77;1.70;;;10.00;99.90;;;;;;5051830;28;20255;-62
2022/11/13 07:20:12;;;;;;;2.10;1.40;;;10.00;99.90;;;;;;5052011;28;20212;-62
2022/11/13 07:22:39;;;;;;;2.47;1.60;;;9.90;99.90;;;;;;5051677;28;20279;-62
2022/11/13 07:25:07;;;;;;;2.90;1.60;;;9.90;99.90;;;;;;5051902;28;20213;-61
2022/11/13 07:27:33;;;;;;;1.77;1.63;;;9.80;99.90;;;;;;5051482;28;20263;-61
2022/11/13 07:30:00;;;;;;;2.40;1.70;;;9.80;99.90;;;;;;5051878;28;20217;-62
2022/11/13 07:32:27;;;;;;;1.60;1.50;;;9.70;99.90;;;;;;5051710;28;20228;-62
2022/11/13 07:34:55;;;;;;;2.30;1.77;;;9.70;99.90;;;;;;5051700;28;20212;-62
2022/11/13 07:37:21;;;;;;;2.07;1.60;;;9.70;99.90;;;;;;5052123;28;20214;-65
2022/11/13 07:39:48;;;;;;;1.70;1.27;;;9.70;99.90;;;;;;5051740;28;20213;-62
2022/11/13 07:42:14;;;;;;;4.07;2.10;;;9.60;99.90;;;;;;5051390;28;20286;-62
2022/11/13 07:44:41;;;;;;;4.57;2.50;;;9.60;99.90;;;;;;5051909;28;20297;-62
2022/11/13 07:47:08;;;;;;;3.50;2.33;;;9.60;99.90;;;;;;5051511;28;20213;-61
2022/11/13 07:49:34;;;;;;;7.47;3.23;;;9.40;99.90;;;;;;5051658;28;20212;-62
2022/11/13 07:52:03;;;;;;;6.10;3.30;;;9.40;99.90;;;;;;5051600;28;20232;-62
2022/11/13 07:54:29;;;;;;;5.20;3.37;;;9.30;99.90;;;;;;5051471;28;20212;-62
2022/11/13 07:56:56;;;;;;;4.70;3.23;;;9.30;99.90;;;;;;5051195;28;20267;-62
2022/11/13 07:59:23;;;;;;;4.93;2.77;;;9.40;99.90;;;;;;5051583;28;20209;-62
2022/11/13 08:01:49;;;;;;;3.57;2.20;;;9.40;99.90;;;;;;5051732;28;20201;-62
2022/11/13 08:04:16;;;;;;;5.43;2.63;;;9.40;99.90;;;;;;5051535;28;20242;-62
2022/11/13 08:06:43;;;;;;;3.10;2.30;;;9.40;99.90;;;;;;5051237;28;20206;-62
2022/11/13 08:09:11;;;;;;;4.30;2.30;;;9.40;99.90;;;;;;5051223;28;20205;-62
2022/11/13 08:11:37;;;;;;;3.43;2.07;;;9.40;99.90;;;;;;5052086;28;20278;-62
2022/11/13 08:14:04;;;;;;;4.33;1.93;;;9.40;99.90;;;;;;5055236;28;20225;-62
2022/11/13 08:16:31;;;;;;;3.00;1.70;;;9.50;99.90;;;;;;5055188;28;20231;-61
2022/11/13 08:18:58;;;;;;;2.27;1.50;;;9.50;99.90;;;;;;5055383;28;20210;-62
2022/11/13 08:21:24;;;;;;;2.63;1.83;;;9.50;99.90;;;;;;5055047;28;20209;-62
2022/11/13 08:23:51;;;;;;;2.53;1.77;;;9.50;99.90;;;;;;5054895;28;20240;-62
2022/11/13 08:26:19;;;;;;;2.13;1.70;;;9.60;99.90;;;;;;5054962;28;20222;-62
2022/11/13 08:28:46;;;;;;;2.70;1.90;;;9.60;99.90;;;;;;5054987;28;20559;-62
2022/11/13 08:31:14;;;;;;;4.43;3.07;;;9.70;99.90;;;;;;5055026;28;20622;-62
2022/11/13 08:33:42;;;;;;;6.33;4.07;;;9.70;99.90;;;;;;5054599;28;20261;-61
2022/11/13 08:36:10;;;;;;;5.87;4.10;;;9.80;99.90;;;;;;5054629;28;20202;-62
2022/11/13 08:38:37;;;;;;;4.53;3.27;;;9.90;99.90;;;;;;5054687;28;20235;-62
2022/11/13 08:41:05;;;;;;;4.07;3.03;;;9.90;99.90;;;;;;5054726;28;20271;-61
2022/11/13 08:43:33;;;;;;;11.10;6.63;;;10.10;99.90;;;;;;5054609;28;20232;-62
2022/11/13 08:46:00;;;;;;;14.20;8.57;;;10.10;99.90;;;;;;5054349;28;20209;-61
2022/11/13 08:48:27;;;;;;;9.53;6.63;;;10.20;99.90;;;;;;5054602;28;20208;-62
2022/11/13 08:50:55;;;;;;;13.77;6.53;;;10.30;99.90;;;;;;5054312;28;20213;-62
2022/11/13 08:53:22;;;;;;;5.53;4.00;;;10.40;99.90;;;;;;5054372;28;20229;-62
2022/11/13 08:55:49;;;;;;;5.60;3.90;;;10.60;99.90;;;;;;5054341;28;20232;-62
2022/11/13 08:58:16;;;;;;;5.47;3.57;;;10.60;99.90;;;;;;5054383;28;20588;-61
2022/11/13 09:00:44;;;;;;;4.33;3.10;;;10.80;99.90;;;;;;5054246;28;20216;-61
2022/11/13 09:03:11;;;;;;;3.37;2.90;;;10.90;99.90;;;;;;5054324;28;20735;-61
2022/11/13 09:05:38;;;;;;;3.73;2.63;;;11.10;99.90;;;;;;5053747;28;20688;-61
2022/11/13 09:08:05;;;;;;;4.10;2.87;;;11.30;99.90;;;;;;5054311;28;20206;-61
2022/11/13 09:10:32;;;;;;;4.87;3.57;;;11.50;99.90;;;;;;5054221;28;20217;-60
2022/11/13 09:13:01;;;;;;;6.90;3.40;;;11.70;99.90;;;;;;5054088;28;20233;-61
2022/11/13 09:15:28;;;;;;;6.47;3.70;;;11.90;99.90;;;;;;5053999;28;20210;-62
2022/11/13 09:18:00;;;;;;;4.57;2.90;;;12.10;99.90;;;;;;5053840;28;20212;-61
2022/11/13 09:20:27;;;;;;;6.80;4.10;;;12.30;99.90;;;;;;5053758;28;20213;-61
2022/11/13 09:22:58;;;;;;;4.30;3.13;;;12.50;99.90;;;;;;5053404;28;20723;-60
2022/11/13 09:25:25;;;;;;;3.57;2.70;;;12.60;99.90;;;;;;5053739;28;20212;-61
2022/11/13 09:27:53;;;;;;;3.07;2.20;;;12.80;99.90;;;;;;5053408;28;20267;-61
2022/11/13 09:30:20;;;;;;;3.50;2.07;;;13.00;99.90;;;;;;5053787;28;20301;-61
2022/11/13 09:32:47;;;;;;;2.33;1.80;;;13.20;99.90;;;;;;5053488;28;20287;-61
2022/11/13 09:35:15;;;;;;;3.03;1.77;;;13.40;99.90;;;;;;5053746;28;20628;-61
2022/11/13 09:37:42;;;;;;;3.63;1.70;;;13.50;99.90;;;;;;5053548;28;20267;-62
2022/11/13 09:40:17;;;;;;;2.60;1.60;;;13.60;99.90;;;;;;5053666;28;20209;-62
2022/11/13 09:42:45;;;;;;;3.00;1.67;;;13.80;99.90;;;;;;5053426;28;20281;-61
2022/11/13 09:45:15;;;;;;;1.97;1.50;;;13.90;99.90;;;;;;5052989;28;20217;-62
2022/11/13 09:47:44;;;;;;;1.80;1.40;;;14.00;99.90;;;;;;5053397;28;20209;-61
2022/11/13 09:50:17;;;;;;;4.50;3.13;;;14.10;99.90;;;;;;5053564;28;20209;-61
2022/11/13 09:52:45;;;;;;;4.33;3.00;;;14.20;99.90;;;;;;5053565;28;20237;-61
2022/11/13 09:55:13;;;;;;;2.00;1.70;;;14.30;99.90;;;;;;5053352;28;20201;-61
2022/11/13 09:57:47;;;;;;;2.33;1.60;;;14.40;99.90;;;;;;5052983;28;20201;-61
2022/11/13 10:00:17;;;;;;;2.70;1.70;;;14.50;99.90;;;;;;5053576;28;20613;-61
2022/11/13 10:02:53;;;;;;;3.40;1.93;;;14.60;99.90;;;;;;5053379;28;20226;-61
2022/11/13 10:05:29;;;;;;;2.50;1.90;;;14.60;99.90;;;;;;5053503;28;20205;-61
2022/11/13 10:08:03;;;;;;;3.13;1.90;;;14.70;99.90;;;;;;5053173;28;20738;-60
2022/11/13 10:10:44;;;;;;;2.40;1.90;;;14.70;99.90;;;;;;5053398;28;20213;-61
2022/11/13 10:13:20;;;;;;;2.77;2.10;;;14.80;99.90;;;;;;5052809;28;20280;-61
2022/11/13 10:15:52;;;;;;;2.63;2.17;;;14.90;99.90;;;;;;5052813;28;20201;-61
2022/11/13 10:18:22;;;;;;;2.93;2.10;;;15.00;99.90;;;;;;5053054;28;20259;-61
2022/11/13 10:20:54;;;;;;;3.37;1.93;;;15.10;99.90;;;;;;5052912;28;20271;-61
2022/11/13 10:23:23;;;;;;;3.70;2.00;;;15.10;99.90;;;;;;5052778;28;20313;-61
2022/11/13 10:25:51;;;;;;;3.63;1.90;;;15.20;99.90;;;;;;5052776;28;20205;-62
2022/11/13 10:28:22;;;;;;;4.30;2.13;;;15.20;99.90;;;;;;5052772;28;20289;-62
2022/11/13 10:30:49;;;;;;;2.70;1.90;;;15.30;99.90;;;;;;5052608;28;20206;-62
2022/11/13 10:33:19;;;;;;;2.97;1.80;;;15.50;99.90;;;;;;5052454;28;20230;-62
2022/11/13 10:35:56;;;;;;;3.50;2.00;;;15.60;99.90;;;;;;5051880;28;20255;-62
2022/11/13 10:38:27;;;;;;;4.47;2.40;;;15.60;99.90;;;;;;5052597;28;20205;-62
2022/11/13 10:41:05;;;;;;;4.23;2.23;;;15.70;99.90;;;;;;5052266;28;20724;-60
2022/11/13 10:43:31;;;;;;;2.97;2.20;;;15.80;99.90;;;;;;5052186;28;20229;-62
2022/11/13 10:46:00;;;;;;;3.50;2.23;;;15.90;99.90;;;;;;5052163;28;20212;-61
2022/11/13 10:48:28;;;;;;;4.17;2.63;;;15.90;99.90;;;;;;5052375;28;20246;-62
2022/11/13 10:50:59;;;;;;;10.43;4.93;;;16.00;99.90;;;;;;5052079;28;20714;-62
2022/11/13 10:53:32;;;;;;;3.40;2.43;;;16.10;99.90;;;;;;5052043;28;20236;-62
2022/11/13 10:55:59;;;;;;;3.63;2.27;;;16.10;99.90;;;;;;5051911;28;20213;-62
2022/11/13 10:58:26;;;;;;;2.87;1.93;;;16.20;99.90;;;;;;5052046;28;20301;-62
2022/11/13 11:00:53;;;;;;;5.03;2.80;;;16.20;99.90;;;;;;5051767;28;20206;-61
2022/11/13 11:03:21;;;;;;;5.03;2.50;;;16.30;99.90;;;;;;5052057;28;20221;-62
2022/11/13 11:05:53;;;;;;;7.87;3.83;;;16.30;99.90;;;;;;5051940;28;20738;-62
2022/11/13 11:08:24;;;;;;;3.60;2.60;;;16.40;99.90;;;;;;5051948;28;20205;-62
2022/11/13 11:13:42;;;;;;;7.90;3.33;;;16.60;99.90;;;;;;5051789;28;20298;-62
2022/11/13 11:16:14;;;;;;;3.57;2.60;;;16.60;99.90;;;;;;5051675;28;20202;-61
2022/11/13 11:18:43;;;;;;;9.07;5.43;;;16.60;99.90;;;;;;5052007;28;20202;-62
2022/11/13 11:21:15;;;;;;;10.83;5.90;;;16.70;99.90;;;;;;5051618;28;20210;-62
2022/11/13 11:23:50;;;;;;;12.83;5.13;;;16.80;99.90;;;;;;5051807;28;20226;-62
2022/11/13 11:26:23;;;;;;;9.70;4.57;;;16.80;99.90;;;;;;5051790;28;20587;-62
2022/11/13 11:29:00;;;;;;;6.13;3.07;;;16.80;99.90;;;;;;5051780;28;20209;-62
2022/11/13 11:31:34;;;;;;;4.50;2.70;;;16.80;99.90;;;;;;5051600;28;20205;-62
2022/11/13 11:34:14;;;;;;;4.93;2.50;;;16.90;99.90;;;;;;5051887;28;20287;-62
2022/11/13 11:36:47;;;;;;;5.33;2.50;;;16.90;99.90;;;;;;5051329;28;20206;-62
2022/11/13 11:39:27;;;;;;;5.43;2.80;;;17.00;99.90;;;;;;5051596;28;20206;-61
2022/11/13 11:42:03;;;;;;;5.47;3.27;;;16.90;99.90;;;;;;5051610;28;20302;-62
2022/11/13 11:44:39;;;;;;;4.63;2.80;;;16.70;99.90;;;;;;5051532;28;20209;-62
2022/11/13 11:47:14;;;;;;;4.70;3.03;;;16.60;99.90;;;;;;5054649;28;20749;-61
2022/11/13 11:49:42;;;;;;;7.67;3.17;;;16.50;99.90;;;;;;5055439;28;20676;-62
2022/11/13 11:52:22;;;;;;;5.97;2.93;;;16.50;99.90;;;;;;5055451;28;20286;-62
2022/11/13 11:55:04;;;;;;;13.97;8.90;;;16.60;99.90;;;;;;5055859;28;20209;-62
2022/11/13 11:57:46;;;;;;;3.60;2.70;;;16.60;99.90;;;;;;5050092;28;20208;-64
2022/11/13 12:00:16;;;;;;;6.80;3.10;;;16.70;99.90;;;;;;5025763;28;20259;-61
2022/11/13 12:03:06;;;;;;;5.97;4.40;;;16.70;99.90;;;;;;5034909;28;20384;-61
2022/11/13 12:05:44;;;;;;;5.97;2.97;;;16.80;99.90;;;;;;5031365;28;20661;-61
2022/11/13 12:08:27;;;;;;;4.47;3.10;;;16.80;99.90;;;;;;5033041;28;20214;-62
2022/11/13 12:11:02;;;;;;;7.17;4.63;;;16.90;99.90;;;;;;5035226;28;20210;-62
2022/11/13 12:13:30;;;;;;;19.77;11.00;;;16.90;99.90;;;;;;5034903;28;20245;-64
2022/11/13 12:16:04;;;;;;;75.43;41.00;;;16.90;99.90;;;;;;5034581;28;20289;-63
2022/11/13 12:18:48;;;;;;;5.70;3.20;;;17.00;99.90;;;;;;5034521;28;20225;-63
2022/11/13 12:21:23;;;;;;;5.57;2.63;;;17.10;99.90;;;;;;5034733;28;20214;-65
2022/11/13 12:24:05;;;;;;;5.50;3.63;;;17.30;99.90;;;;;;5034692;28;20226;-63
2022/11/13 12:26:41;;;;;;;15.77;8.33;;;17.30;99.90;;;;;;5034719;28;20566;-63
2022/11/13 12:29:21;;;;;;;5.23;3.70;;;17.40;99.90;;;;;;5034156;28;20590;-63
2022/11/13 12:31:57;;;;;;;80.20;41.40;;;17.40;99.90;;;;;;5034025;28;20260;-61
2022/11/13 12:34:28;;;;;;;4.47;2.90;;;17.40;99.90;;;;;;5034342;28;20677;-64
2022/11/13 12:36:56;;;;;;;3.97;2.30;;;17.50;99.90;;;;;;5034361;28;20754;-63
2022/11/13 12:39:40;;;;;;;47.37;23.23;;;17.50;99.90;;;;;;5034694;28;20213;-62
2022/11/13 12:42:19;;;;;;;3.20;2.30;;;17.50;99.90;;;;;;5034408;28;20248;-62
2022/11/13 12:44:54;;;;;;;3.17;2.37;;;17.60;99.90;;;;;;5029151;28;20213;-61
2022/11/13 12:47:21;;;;;;;2.87;2.23;;;17.70;99.90;;;;;;5034421;28;20624;-63
2022/11/13 12:49:59;;;;;;;5.50;3.10;;;17.80;99.90;;;;;;5034010;28;20582;-57
2022/11/13 12:52:26;;;;;;;4.17;2.90;;;18.00;99.90;;;;;;5033439;28;20226;-63
2022/11/13 12:55:04;;;;;;;4.17;3.10;;;18.10;99.90;;;;;;5034072;28;20577;-64
2022/11/13 12:57:33;;;;;;;3.93;3.17;;;18.20;99.90;;;;;;5033477;28;20556;-63
2022/11/13 13:00:12;;;;;;;4.77;3.17;;;18.00;99.90;;;;;;5033547;28;20590;-63
2022/11/13 13:02:50;;;;;;;4.77;3.07;;;17.90;99.90;;;;;;5037638;28;20225;-64